New York Downtown Manhattan/w, NY

3:00 AM EDT on April 26, 2017 (GMT -0400)
New York Downtown Manhattan/w

Weather History for KJRB - December, 2013

Change the Weather History Date:

Sunday, December 8, 2013

  Actual Average (KEWR) Record (KEWR)
Temperature  
Mean Temperature 32 °F -  
Max Temperature 35 °F 46 °F 66 °F (1980)
Min Temperature 30 °F 33 °F 14 °F (1934)
Degree Days  
Heating Degree Days 32    
Moisture  
Dew Point 25 °F    
Average Humidity 71    
Maximum Humidity 100    
Minimum Humidity 55    
Precipitation  
Precipitation 0.04 in - - ()
Sea Level Pressure  
Sea Level Pressure 30.53 in    
Wind  
Wind Speed 6 mph (NE)    
Max Wind Speed 17 mph    
Max Gust Speed 25 mph    
Visibility 9 miles    
Events      
Averages and records for this station are not official NWS values.
T = Trace of Precipitation, MM = Missing Value Source: NWS Daily Summary

Daily Weather History Graph

Daily Weather History Graph

Search for Another Location

Airport or City:

Trip Planner

Search our weather history database for the weather conditions in past years. The results will help you decide how hot, cold, wet, or windy it might be!

Date:

Astronomy

Dec. 08, 2013 Rise Set
Actual Time 7:07 AM EST 4:28 PM EST
Civil Twilight 6:36 AM EST 4:59 PM EST
Nautical Twilight 6:02 AM EST 5:33 PM EST
Astronomical Twilight 5:29 AM EST 6:06 PM EST
Moon 11:25 AM EST (12/8) 11:16 PM EST (12/8)
Length of Visible Light 10h 22m
Length of Day
9h 20m
Waxing Crescent, 40% of the Moon is Illuminated
Dec 8
Waxing Crescent
Dec 9
First Quarter
Dec 17
Full
Dec 25
Last Quarter
Jan 1
New

Hourly Weather History & Observations

Time (EST) Temp. Windchill Dew Point Humidity Pressure Visibility Wind Dir Wind Speed Gust Speed Precip Events Conditions
12:15 AM 35.6 °F 32.8 °F 24.8 °F 65% 30.52 in 10.0 mi SW 3.5 mph - N/A   Clear
12:35 AM 33.8 °F 29.6 °F 19.4 °F 56% 30.52 in 10.0 mi East 4.6 mph - N/A   Clear
12:55 AM 33.8 °F 27.7 °F 19.4 °F 56% 30.52 in 10.0 mi West 6.9 mph - N/A   Clear
1:15 AM 33.8 °F 27.7 °F 19.4 °F 56% 30.52 in 10.0 mi WSW 6.9 mph - N/A   Clear
1:35 AM 33.8 °F 28.6 °F 19.4 °F 56% 30.52 in 10.0 mi West 5.8 mph - N/A   Clear
1:55 AM 33.8 °F 30.8 °F 19.4 °F 56% 30.53 in 10.0 mi SW 3.5 mph - N/A   Clear
2:15 AM 32.0 °F 27.5 °F 17.6 °F 55% 30.54 in 10.0 mi WNW 4.6 mph - N/A   Clear
2:35 AM 33.8 °F - 19.4 °F 56% 30.55 in 10.0 mi Calm Calm - N/A   Clear
2:55 AM 32.0 °F 27.5 °F 19.4 °F 60% 30.55 in 10.0 mi WNW 4.6 mph - N/A   Clear
3:15 AM 32.0 °F - 19.4 °F 60% 30.55 in 10.0 mi Calm Calm - N/A   Clear
3:35 AM 32.0 °F - 19.4 °F 60% 30.56 in 10.0 mi Calm Calm - N/A   Clear
3:55 AM 30.2 °F 26.7 °F 19.4 °F 64% 30.56 in 10.0 mi West 3.5 mph - N/A   Clear
4:15 AM 30.2 °F 26.7 °F 19.4 °F 64% 30.56 in 10.0 mi SW 3.5 mph - N/A   Clear
4:35 AM 32.0 °F 27.5 °F 19.4 °F 60% 30.55 in 10.0 mi NE 4.6 mph - N/A   Clear
4:55 AM 32.0 °F 26.4 °F 21.2 °F 64% 30.54 in 10.0 mi ENE 5.8 mph - N/A   Clear
5:15 AM 32.0 °F - 19.4 °F 60% 30.56 in 10.0 mi Calm Calm - N/A   Clear
5:35 AM 30.2 °F 24.3 °F 19.4 °F 64% 30.57 in 10.0 mi NNE 5.8 mph - N/A   Clear
5:55 AM 32.0 °F 27.5 °F 21.2 °F 64% 30.57 in 10.0 mi NE 4.6 mph - N/A   Clear
6:15 AM 32.0 °F 25.6 °F 21.2 °F 64% 30.57 in 10.0 mi ENE 6.9 mph - N/A   Clear
6:35 AM 32.0 °F - 19.4 °F 60% 30.58 in 10.0 mi Calm Calm - N/A   Clear
6:55 AM 32.0 °F 28.7 °F 19.4 °F 60% 30.57 in 10.0 mi ENE 3.5 mph - N/A   Clear
7:15 AM 32.0 °F - 19.4 °F 60% 30.58 in 10.0 mi Calm Calm - N/A   Clear
7:35 AM 30.2 °F - 19.4 °F 64% 30.60 in 10.0 mi Calm Calm - N/A   Clear
7:55 AM 32.0 °F - 19.4 °F 60% 30.59 in 10.0 mi Calm Calm - N/A   Clear
8:15 AM 33.8 °F 30.8 °F 19.4 °F 56% 30.60 in 10.0 mi East 3.5 mph - N/A   Clear
8:35 AM 33.8 °F 30.8 °F 19.4 °F 56% 30.61 in 10.0 mi NE 3.5 mph - N/A   Clear
8:55 AM 32.0 °F - 19.4 °F 60% 30.61 in 10.0 mi Calm Calm - N/A   Clear
9:15 AM 35.6 °F 27.1 °F 21.2 °F 56% 30.59 in 10.0 mi ENE 12.7 mph 19.6 mph N/A   Clear
9:35 AM 35.6 °F 27.5 °F 21.2 °F 56% 30.58 in 10.0 mi NE 11.5 mph - N/A   Clear
9:55 AM 35.6 °F 27.1 °F 24.8 °F 65% 30.59 in 10.0 mi ENE 12.7 mph 21.9 mph 0.04 in   Scattered Clouds
10:15 AM 35.6 °F 26.2 °F 24.8 °F 65% 30.60 in 10.0 mi NE 15.0 mph - N/A   Mostly Cloudy
10:35 AM 35.6 °F 27.5 °F 24.8 °F 65% 30.60 in 10.0 mi ENE 11.5 mph - N/A   Overcast
10:55 AM 35.6 °F 26.6 °F 24.8 °F 65% 30.58 in 10.0 mi ENE 13.8 mph 19.6 mph N/A   Overcast
11:15 AM 35.6 °F 26.6 °F 24.8 °F 65% 30.56 in 10.0 mi NE 13.8 mph 20.7 mph N/A   Overcast
11:35 AM 35.6 °F 27.5 °F 24.8 °F 65% 30.58 in 10.0 mi ENE 11.5 mph 16.1 mph N/A   Overcast
11:55 AM 35.6 °F 27.5 °F 24.8 °F 65% 30.56 in 10.0 mi NE 11.5 mph 25.3 mph N/A   Overcast
12:15 PM 35.6 °F 28.0 °F 24.8 °F 65% 30.55 in 10.0 mi ENE 10.4 mph 17.3 mph N/A   Overcast
12:35 PM 35.6 °F 28.6 °F 21.2 °F 56% 30.56 in 10.0 mi NNE 9.2 mph 18.4 mph N/A   Overcast
12:55 PM 35.6 °F 29.2 °F 24.8 °F 65% 30.55 in 10.0 mi NNE 8.1 mph - N/A   Overcast
1:15 PM 35.6 °F 29.9 °F 24.8 °F 65% 30.55 in 10.0 mi NE 6.9 mph - N/A   Overcast
1:35 PM 35.6 °F 29.2 °F 26.6 °F 70% 30.54 in 10.0 mi East 8.1 mph - N/A   Overcast
1:55 PM 35.6 °F 29.2 °F 26.6 °F 70% 30.54 in 10.0 mi ENE 8.1 mph - N/A   Overcast
2:15 PM 35.6 °F 30.7 °F 26.6 °F 70% 30.54 in 10.0 mi East 5.8 mph - N/A   Overcast
2:35 PM 35.6 °F 29.9 °F 26.6 °F 70% 30.53 in 10.0 mi ENE 6.9 mph - N/A   Overcast
2:55 PM 35.6 °F 29.9 °F 24.8 °F 65% 30.52 in 10.0 mi ENE 6.9 mph - N/A   Overcast
3:15 PM 35.6 °F 31.7 °F 24.8 °F 65% 30.52 in 10.0 mi ESE 4.6 mph - N/A   Overcast
3:35 PM 35.6 °F 27.1 °F 23.0 °F 60% 30.52 in 10.0 mi NE 12.7 mph - N/A   Overcast
3:55 PM 35.6 °F 28.6 °F 24.8 °F 65% 30.53 in 10.0 mi NE 9.2 mph - N/A   Overcast
4:15 PM 35.6 °F 29.2 °F 24.8 °F 65% 30.55 in 10.0 mi ENE 8.1 mph - N/A   Overcast
4:35 PM 33.8 °F 28.6 °F 24.8 °F 70% 30.53 in 10.0 mi East 5.8 mph - N/A   Overcast
4:55 PM 33.8 °F 26.4 °F 26.6 °F 75% 30.53 in 9.0 mi NE 9.2 mph - N/A   Overcast
5:15 PM 33.8 °F 26.4 °F 28.4 °F 81% 30.53 in 4.0 mi NE 9.2 mph - N/A   Overcast
5:35 PM 32.0 °F 24.8 °F 28.4 °F 87% 30.53 in 3.0 mi ENE 8.1 mph - N/A   Overcast
5:55 PM 32.0 °F 23.0 °F 30.2 °F 93% 30.52 in 3.0 mi ENE 11.5 mph - N/A   Overcast
6:15 PM 32.0 °F 24.2 °F 30.2 °F 93% 30.52 in 7.0 mi NE 9.2 mph - N/A   Overcast
6:35 PM 32.0 °F 24.2 °F 30.2 °F 93% 30.52 in 7.0 mi NE 9.2 mph - N/A   Overcast
6:55 PM 32.0 °F 23.6 °F 30.2 °F 93% 30.51 in 10.0 mi NE 10.4 mph - N/A   Overcast
7:15 PM 32.0 °F 23.6 °F 28.4 °F 87% 30.50 in 10.0 mi NE 10.4 mph - N/A   Overcast
7:35 PM 32.0 °F 23.6 °F 28.4 °F 87% 30.51 in 10.0 mi NE 10.4 mph - N/A   Mostly Cloudy
7:55 PM 33.8 °F 25.3 °F 30.2 °F 87% 30.50 in 10.0 mi NE 11.5 mph - N/A   Overcast
8:15 PM 33.8 °F 25.8 °F 30.2 °F 87% 30.49 in 6.0 mi NE 10.4 mph - N/A   Overcast
8:35 PM 33.8 °F 24.8 °F 30.2 °F 87% 30.48 in 7.0 mi NE 12.7 mph - N/A   Overcast
8:55 PM 33.8 °F 24.8 °F 30.2 °F 87% 30.46 in 8.0 mi NE 12.7 mph - N/A   Overcast
9:15 PM 33.8 °F 24.3 °F 30.2 °F 87% 30.43 in 7.0 mi NE 13.8 mph - N/A   Overcast
9:35 PM 33.8 °F 24.8 °F 32.0 °F 93% 30.44 in 10.0 mi NE 12.7 mph 18.4 mph N/A   Overcast
9:55 PM 33.8 °F 23.9 °F 33.8 °F 100% 30.41 in 9.0 mi NE 15.0 mph - N/A   Overcast
10:15 PM 33.8 °F 23.5 °F 32.0 °F 93% 30.39 in 7.0 mi NE 16.1 mph - N/A   Overcast
10:35 PM 33.8 °F 23.9 °F 33.8 °F 100% 30.40 in 5.0 mi NE 15.0 mph 19.6 mph N/A   Overcast
10:55 PM 33.8 °F 25.3 °F 33.8 °F 100% 30.42 in 4.0 mi NE 11.5 mph 18.4 mph N/A   Overcast
11:15 PM 33.8 °F 24.8 °F 33.8 °F 100% 30.39 in 5.0 mi NE 12.7 mph - N/A   Overcast
11:35 PM 33.8 °F 23.2 °F 33.8 °F 100% 30.39 in 8.0 mi NE 17.3 mph 21.9 mph N/A   Overcast
11:55 PM 35.6 °F 26.6 °F 33.8 °F 93% 30.39 in 6.0 mi NE 13.8 mph 19.6 mph N/A   Overcast